Time,TemperatureF,DewpointF,PressureIn,WindDirection,WindDirectionDegrees,WindSpeedMPH,WindSpeedGustMPH,Humidity,HourlyPrecipIn,Conditions,Clouds,dailyrainin,SolarRadiationWatts/m^2,SoftwareType,DateUTC
2013-09-14 00:00:00,56.7,51.3,29.59,SW,236,1.0,2.0,82,0.00,,,0.05,0,Wunderground v.1.15,2013-09-14 06:00:00,
2013-09-14 00:05:00,56.7,51.3,29.59,West,278,2.0,9.0,82,0.00,,,0.00,0,Wunderground v.1.15,2013-09-14 06:05:00,
2013-09-14 00:10:00,56.8,51.0,29.59,WSW,253,5.0,5.0,81,0.00,,,0.00,0,Wunderground v.1.15,2013-09-14 06:10:00,
2013-09-14 00:15:00,57.0,51.2,29.59,SW,226,4.0,5.0,81,0.00,,,0.01,0,Wunderground v.1.15,2013-09-14 06:15:00,
2013-09-14 00:20:00,57.0,51.6,29.60,SW,226,2.0,4.0,82,0.00,,,0.01,0,Wunderground v.1.15,2013-09-14 06:20:00,
2013-09-14 00:30:00,57.0,51.2,29.59,West,280,2.0,6.0,81,0.04,,,0.01,0,Wunderground v.1.15,2013-09-14 06:30:00,
2013-09-14 00:35:00,57.0,51.6,29.59,WNW,283,3.0,6.0,82,0.04,,,0.02,0,Wunderground v.1.15,2013-09-14 06:35:00,
2013-09-14 00:40:00,56.9,51.5,29.59,WNW,283,2.0,2.0,82,0.04,,,0.02,0,Wunderground v.1.15,2013-09-14 06:40:00,
2013-09-14 00:45:00,56.9,51.5,29.60,WNW,283,2.0,2.0,82,0.04,,,0.02,0,Wunderground v.1.15,2013-09-14 06:45:00,
2013-09-14 00:50:00,56.8,51.7,29.60,WNW,283,2.0,2.0,83,0.00,,,0.02,0,Wunderground v.1.15,2013-09-14 06:50:00,
2013-09-14 01:00:00,56.7,51.9,29.60,WNW,283,1.0,1.0,84,0.00,,,0.03,0,Wunderground v.1.15,2013-09-14 07:00:00,
2013-09-14 01:05:00,56.7,51.9,29.60,WNW,283,0.0,1.0,84,0.07,,,0.04,0,Wunderground v.1.15,2013-09-14 07:05:00,
2013-09-14 01:10:00,56.6,51.8,29.61,WNW,283,0.0,2.0,84,0.07,,,0.04,0,Wunderground v.1.15,2013-09-14 07:10:00,
2013-09-14 01:15:00,56.5,51.7,29.61,WNW,283,1.0,3.0,84,0.07,,,0.05,0,Wunderground v.1.15,2013-09-14 07:15:00,
2013-09-14 01:20:00,56.4,51.6,29.61,West,270,3.0,6.0,84,0.09,,,0.06,0,Wunderground v.1.15,2013-09-14 07:20:00,
2013-09-14 01:25:00,56.2,51.4,29.61,West,269,5.0,6.0,84,0.11,,,0.07,0,Wunderground v.1.15,2013-09-14 07:25:00,
2013-09-14 01:30:00,56.1,51.3,29.61,WSW,248,4.0,4.0,84,0.14,,,0.08,0,Wunderground v.1.15,2013-09-14 07:30:00,
2013-09-14 01:35:00,56.0,51.2,29.61,WSW,249,2.0,4.0,84,0.13,,,0.09,0,Wunderground v.1.15,2013-09-14 07:35:00,
2013-09-14 01:40:00,55.8,51.0,29.61,West,273,3.0,5.0,84,0.15,,,0.11,0,Wunderground v.1.15,2013-09-14 07:40:00,
2013-09-14 01:45:00,55.7,50.9,29.61,West,261,5.0,5.0,84,0.18,,,0.12,0,Wunderground v.1.15,2013-09-14 07:45:00,
2013-09-14 01:50:00,55.6,50.8,29.60,SW,231,5.0,5.0,84,0.23,,,0.14,0,Wunderground v.1.15,2013-09-14 07:50:00,
2013-09-14 01:55:00,55.6,50.8,29.60,SSW,208,4.0,5.0,84,0.24,,,0.16,0,Wunderground v.1.15,2013-09-14 07:55:00,
2013-09-14 02:05:00,55.4,51.3,29.59,South,180,6.0,10.0,86,0.15,,,0.18,0,Wunderground v.1.15,2013-09-14 08:05:00,
2013-09-14 02:10:00,55.4,51.6,29.59,South,180,8.0,8.0,87,0.12,,,0.19,0,Wunderground v.1.15,2013-09-14 08:10:00,
2013-09-14 02:20:00,55.4,51.6,29.59,South,171,7.0,7.0,87,0.07,,,0.20,0,Wunderground v.1.15,2013-09-14 08:20:00,
2013-09-14 02:25:00,55.4,51.6,29.59,South,175,6.0,7.0,87,0.07,,,0.21,0,Wunderground v.1.15,2013-09-14 08:25:00,
2013-09-14 02:35:00,56.3,50.9,29.58,South,190,7.0,7.0,82,0.05,,,0.21,0,Wunderground v.1.15,2013-09-14 08:35:00,
2013-09-14 02:45:00,56.9,50.5,29.59,SW,224,6.0,8.0,79,0.05,,,0.22,0,Wunderground v.1.15,2013-09-14 08:45:00,
2013-09-14 02:55:00,57.3,49.4,29.58,SSW,201,8.0,8.0,75,0.00,,,0.22,0,Wunderground v.1.15,2013-09-14 08:55:00,
2013-09-14 03:00:00,57.4,49.2,29.58,WSW,238,7.0,7.0,74,0.00,,,0.23,0,Wunderground v.1.15,2013-09-14 09:00:00,
2013-09-14 03:05:00,57.3,49.1,29.58,South,175,7.0,7.0,74,0.00,,,0.23,0,Wunderground v.1.15,2013-09-14 09:05:00,
2013-09-14 03:10:00,57.4,49.2,29.58,South,185,6.0,6.0,74,0.06,,,0.24,0,Wunderground v.1.15,2013-09-14 09:10:00,
2013-09-14 03:15:00,57.2,49.7,29.58,SW,224,5.0,6.0,76,0.09,,,0.25,0,Wunderground v.1.15,2013-09-14 09:15:00,
2013-09-14 03:20:00,56.6,49.8,29.58,SSW,207,3.0,5.0,78,0.10,,,0.26,0,Wunderground v.1.15,2013-09-14 09:20:00,
2013-09-14 03:30:00,56.5,49.0,29.58,SSW,193,6.0,7.0,76,0.07,,,0.27,0,Wunderground v.1.15,2013-09-14 09:30:00,
2013-09-14 03:35:00,56.7,49.2,29.58,SSW,203,6.0,7.0,76,0.07,,,0.27,0,Wunderground v.1.15,2013-09-14 09:35:00,
2013-09-14 03:40:00,56.3,49.2,29.58,South,170,6.0,7.0,77,0.06,,,0.28,0,Wunderground v.1.15,2013-09-14 09:40:00,
2013-09-14 03:50:00,56.3,48.8,29.58,South,185,7.0,7.0,76,0.06,,,0.29,0,Wunderground v.1.15,2013-09-14 09:50:00,
2013-09-14 03:55:00,56.6,48.8,29.58,SW,228,7.0,7.0,75,0.09,,,0.30,0,Wunderground v.1.15,2013-09-14 09:55:00,
2013-09-14 04:05:00,56.3,49.2,29.58,South,175,5.0,7.0,77,0.06,,,0.31,0,Wunderground v.1.15,2013-09-14 10:05:00,
2013-09-14 04:10:00,55.8,50.1,29.57,South,175,5.0,5.0,81,0.06,,,0.31,0,Wunderground v.1.15,2013-09-14 10:10:00,
2013-09-14 04:15:00,55.3,49.9,29.58,South,185,6.0,6.0,82,0.05,,,0.31,0,Wunderground v.1.15,2013-09-14 10:15:00,
2013-09-14 04:20:00,55.3,49.6,29.58,South,170,4.0,7.0,81,0.05,,,0.32,0,Wunderground v.1.15,2013-09-14 10:20:00,
2013-09-14 04:25:00,55.3,49.6,29.58,WSW,242,4.0,7.0,81,0.05,,,0.32,0,Wunderground v.1.15,2013-09-14 10:25:00,
2013-09-14 04:35:00,55.7,50.3,29.58,West,264,6.0,6.0,82,0.08,,,0.34,0,Wunderground v.1.15,2013-09-14 10:35:00,
2013-09-14 04:45:00,55.6,50.2,29.58,SSW,207,3.0,3.0,82,0.09,,,0.36,0,Wunderground v.1.15,2013-09-14 10:45:00,
2013-09-14 04:55:00,55.0,50.3,29.58,South,170,7.0,8.0,84,0.05,,,0.36,0,Wunderground v.1.15,2013-09-14 10:55:00,
2013-09-14 05:00:00,54.8,50.4,29.58,SSW,193,6.0,6.0,85,0.05,,,0.37,0,Wunderground v.1.15,2013-09-14 11:00:00,
2013-09-14 05:10:00,54.7,50.6,29.59,WSW,238,5.0,5.0,86,0.29,,,0.40,0,Wunderground v.1.15,2013-09-14 11:10:00,
2013-09-14 05:15:00,54.7,50.3,29.59,SSE,166,3.0,5.0,85,0.18,,,0.41,0,Wunderground v.1.15,2013-09-14 11:15:00,
2013-09-14 05:20:00,54.7,50.3,29.59,South,175,3.0,3.0,85,0.10,,,0.42,0,Wunderground v.1.15,2013-09-14 11:20:00,
2013-09-14 05:25:00,54.7,50.3,29.59,SSW,195,4.0,5.0,85,0.08,,,0.42,0,Wunderground v.1.15,2013-09-14 11:25:00,
2013-09-14 05:30:00,54.7,50.3,29.60,SW,216,5.0,5.0,85,0.05,,,0.42,0,Wunderground v.1.15,2013-09-14 11:30:00,
2013-09-14 05:35:00,54.6,50.5,29.59,WSW,244,5.0,5.0,86,0.04,,,0.43,0,Wunderground v.1.15,2013-09-14 11:35:00,
2013-09-14 05:40:00,54.7,50.3,29.59,WSW,240,5.0,5.0,85,0.04,,,0.43,0,Wunderground v.1.15,2013-09-14 11:40:00,
2013-09-14 05:45:00,54.9,50.2,29.59,WSW,241,5.0,5.0,84,0.04,,,0.43,0,Wunderground v.1.15,2013-09-14 11:45:00,
2013-09-14 05:55:00,54.8,50.4,29.59,SW,235,5.0,13.0,85,0.00,,,0.44,0,Wunderground v.1.15,2013-09-14 11:55:00,
2013-09-14 06:00:00,54.8,50.4,29.59,SW,219,5.0,5.0,85,0.00,,,0.44,0,Wunderground v.1.15,2013-09-14 12:00:00,
2013-09-14 06:05:00,54.8,50.4,29.59,West,270,3.0,5.0,85,0.00,,,0.44,0,Wunderground v.1.15,2013-09-14 12:05:00,
2013-09-14 06:10:00,54.9,50.5,29.59,South,185,4.0,6.0,85,0.00,,,0.44,0,Wunderground v.1.15,2013-09-14 12:10:00,
2013-09-14 06:15:00,55.2,50.4,29.59,SW,230,4.0,6.0,84,0.00,,,0.44,0,Wunderground v.1.15,2013-09-14 12:15:00,
2013-09-14 06:20:00,55.3,50.5,29.59,WNW,287,4.0,4.0,84,0.00,,,0.44,0,Wunderground v.1.15,2013-09-14 12:20:00,
2013-09-14 06:25:00,55.4,51.0,29.59,WNW,287,4.0,4.0,85,0.00,,,0.44,0,Wunderground v.1.15,2013-09-14 12:25:00,
2013-09-14 06:30:00,55.5,51.1,29.59,WNW,284,3.0,3.0,85,0.00,,,0.44,0,Wunderground v.1.15,2013-09-14 12:30:00,
2013-09-14 06:35:00,55.4,51.0,29.59,SSW,207,2.0,3.0,85,0.00,,,0.44,0,Wunderground v.1.15,2013-09-14 12:35:00,
2013-09-14 06:40:00,55.5,50.7,29.59,WSW,256,2.0,5.0,84,0.00,,,0.45,0,Wunderground v.1.15,2013-09-14 12:40:00,
2013-09-14 06:45:00,55.5,51.1,29.60,SW,235,2.0,5.0,85,0.00,,,0.45,0,Wunderground v.1.15,2013-09-14 12:45:00,
2013-09-14 06:50:00,55.5,51.4,29.60,South,190,1.0,1.0,86,0.00,,,0.45,0,Wunderground v.1.15,2013-09-14 12:50:00,
2013-09-14 07:00:00,55.4,51.3,29.61,South,190,0.0,0.0,86,0.00,,,0.45,0,Wunderground v.1.15,2013-09-14 13:00:00,
2013-09-14 07:05:00,55.4,51.3,29.61,South,190,0.0,0.0,86,0.00,,,0.46,0,Wunderground v.1.15,2013-09-14 13:05:00,
2013-09-14 07:10:00,55.4,51.3,29.61,South,190,0.0,2.0,86,0.00,,,0.46,0,Wunderground v.1.15,2013-09-14 13:10:00,
2013-09-14 07:15:00,55.3,51.5,29.61,South,191,1.0,2.0,87,0.00,,,0.46,0,Wunderground v.1.15,2013-09-14 13:15:00,
2013-09-14 07:20:00,55.3,51.5,29.62,South,191,2.0,3.0,87,0.04,,,0.47,0,Wunderground v.1.15,2013-09-14 13:20:00,
2013-09-14 07:30:00,55.3,51.5,29.63,WSW,253,2.0,2.0,87,0.08,,,0.48,0,Wunderground v.1.15,2013-09-14 13:30:00,
2013-09-14 07:35:00,55.3,51.5,29.63,WSW,253,2.0,2.0,87,0.07,,,0.49,0,Wunderground v.1.15,2013-09-14 13:35:00,
2013-09-14 07:40:00,55.3,51.5,29.63,WSW,253,1.0,1.0,87,0.07,,,0.49,0,Wunderground v.1.15,2013-09-14 13:40:00,
2013-09-14 07:45:00,55.1,51.3,29.63,SSE,162,1.0,4.0,87,0.06,,,0.50,0,Wunderground v.1.15,2013-09-14 13:45:00,
2013-09-14 07:50:00,54.7,51.2,29.63,SSE,162,3.0,3.0,88,0.06,,,0.50,5,Wunderground v.1.15,2013-09-14 13:50:00,
2013-09-14 07:55:00,54.6,51.1,29.63,SSE,166,4.0,4.0,88,0.07,,,0.51,9,Wunderground v.1.15,2013-09-14 13:55:00,
2013-09-14 08:00:00,54.9,51.4,29.63,SSE,166,3.0,3.0,88,0.12,,,0.52,9,Wunderground v.1.15,2013-09-14 14:00:00,
2013-09-14 08:05:00,55.0,51.5,29.64,SSE,166,2.0,3.0,88,0.06,,,0.52,5,Wunderground v.1.15,2013-09-14 14:05:00,
2013-09-14 08:10:00,55.0,51.5,29.64,SSE,166,1.0,1.0,88,0.48,,,0.53,0,Wunderground v.1.15,2013-09-14 14:10:00,
2013-09-14 08:15:00,55.1,51.6,29.64,SSE,166,1.0,1.0,88,0.23,,,0.56,0,Wunderground v.1.15,2013-09-14 14:15:00,
2013-09-14 08:25:00,55.2,51.7,29.64,SSE,166,1.0,1.0,88,0.41,,,0.63,0,Wunderground v.1.15,2013-09-14 14:25:00,
2013-09-14 08:30:00,55.1,51.6,29.65,SSE,166,0.0,0.0,88,0.27,,,0.66,0,Wunderground v.1.15,2013-09-14 14:30:00,
2013-09-14 08:35:00,55.1,51.6,29.64,SSE,166,0.0,2.0,88,0.88,,,0.72,5,Wunderground v.1.15,2013-09-14 14:35:00,
2013-09-14 08:40:00,55.0,51.5,29.65,SSE,166,1.0,1.0,88,0.39,,,0.79,9,Wunderground v.1.15,2013-09-14 14:40:00,
2013-09-14 08:45:00,54.9,51.4,29.65,SSE,166,2.0,2.0,88,0.39,,,0.82,11,Wunderground v.1.15,2013-09-14 14:45:00,
2013-09-14 08:50:00,54.8,51.6,29.65,SSE,166,1.0,1.0,89,0.36,,,0.84,19,Wunderground v.1.15,2013-09-14 14:50:00,
2013-09-14 08:55:00,54.7,51.5,29.65,SSE,165,1.0,2.0,89,0.17,,,0.85,21,Wunderground v.1.15,2013-09-14 14:55:00,
2013-09-14 09:00:00,54.6,51.4,29.66,SW,232,2.0,2.0,89,0.12,,,0.86,18,Wunderground v.1.15,2013-09-14 15:00:00,
2013-09-14 09:05:00,54.5,51.3,29.65,SW,233,2.0,3.0,89,0.57,,,0.89,28,Wunderground v.1.15,2013-09-14 15:05:00,
2013-09-14 09:15:00,54.7,51.5,29.65,SW,233,2.0,3.0,89,0.09,,,0.91,26,Wunderground v.1.15,2013-09-14 15:15:00,
2013-09-14 09:20:00,54.7,51.5,29.65,SW,233,2.0,2.0,89,0.14,,,0.92,32,Wunderground v.1.15,2013-09-14 15:20:00,
2013-09-14 09:25:00,54.7,51.5,29.64,SW,233,2.0,2.0,89,0.07,,,0.92,32,Wunderground v.1.15,2013-09-14 15:25:00,
2013-09-14 09:30:00,54.7,51.8,29.65,WSW,240,2.0,2.0,90,0.07,,,0.93,19,Wunderground v.1.15,2013-09-14 15:30:00,
2013-09-14 09:40:00,54.9,52.0,29.65,West,276,4.0,6.0,90,0.07,,,0.94,58,Wunderground v.1.15,2013-09-14 15:40:00,
2013-09-14 09:45:00,55.0,51.8,29.64,SW,222,4.0,6.0,89,0.05,,,0.94,76,Wunderground v.1.15,2013-09-14 15:45:00,
2013-09-14 09:50:00,55.2,52.0,29.65,NW,311,3.0,3.0,89,0.04,,,0.94,46,Wunderground v.1.15,2013-09-14 15:50:00,
2013-09-14 09:55:00,55.5,52.0,29.65,North,351,1.0,3.0,88,0.00,,,0.94,37,Wunderground v.1.15,2013-09-14 15:55:00,
2013-09-14 10:00:00,55.6,52.1,29.65,SE,133,1.0,4.0,88,0.00,,,0.94,39,Wunderground v.1.15,2013-09-14 16:00:00,
2013-09-14 10:10:00,55.6,52.1,29.65,SW,222,2.0,2.0,88,0.00,,,0.94,47,Wunderground v.1.15,2013-09-14 16:10:00,
2013-09-14 10:15:00,55.6,52.1,29.65,SW,222,2.0,2.0,88,0.00,,,0.94,58,Wunderground v.1.15,2013-09-14 16:15:00,
2013-09-14 10:20:00,55.7,52.2,29.65,SW,222,1.0,1.0,88,0.00,,,0.94,63,Wunderground v.1.15,2013-09-14 16:20:00,
2013-09-14 10:25:00,55.8,52.3,29.66,SW,222,1.0,1.0,88,0.00,,,0.94,60,Wunderground v.1.15,2013-09-14 16:25:00,
2013-09-14 10:30:00,55.9,52.7,29.65,SW,222,0.0,0.0,89,0.00,,,0.94,86,Wunderground v.1.15,2013-09-14 16:30:00,
2013-09-14 10:40:00,56.3,52.8,29.66,SW,225,2.0,2.0,88,0.00,,,0.94,86,Wunderground v.1.15,2013-09-14 16:40:00,
2013-09-14 10:45:00,56.6,53.1,29.66,SW,225,1.0,2.0,88,0.00,,,0.94,142,Wunderground v.1.15,2013-09-14 16:45:00,
2013-09-14 10:55:00,56.8,53.6,29.66,SW,225,1.0,1.0,89,0.00,,,0.94,113,Wunderground v.1.15,2013-09-14 16:55:00,
2013-09-14 11:00:00,56.9,53.4,29.66,SW,225,1.0,1.0,88,0.00,,,0.94,130,Wunderground v.1.15,2013-09-14 17:00:00,
2013-09-14 11:05:00,57.1,53.9,29.66,SW,226,0.0,1.0,89,0.00,,,0.94,132,Wunderground v.1.15,2013-09-14 17:05:00,
2013-09-14 11:10:00,57.4,54.2,29.66,SW,225,0.0,1.0,89,0.00,,,0.94,153,Wunderground v.1.15,2013-09-14 17:10:00,
2013-09-14 11:15:00,57.6,55.3,29.66,SW,225,0.0,1.0,92,0.00,,,0.94,158,Wunderground v.1.15,2013-09-14 17:15:00,
2013-09-14 11:20:00,57.7,54.5,29.66,SW,226,1.0,3.0,89,0.00,,,0.94,141,Wunderground v.1.15,2013-09-14 17:20:00,
2013-09-14 11:30:00,58.2,53.7,29.66,SW,226,3.0,3.0,85,0.00,,,0.94,104,Wunderground v.1.15,2013-09-14 17:30:00,
2013-09-14 11:35:00,58.5,53.7,29.67,SW,225,3.0,4.0,84,0.00,,,0.94,104,Wunderground v.1.15,2013-09-14 17:35:00,
2013-09-14 11:40:00,59.0,53.5,29.67,SW,225,3.0,3.0,82,0.00,,,0.94,109,Wunderground v.1.15,2013-09-14 17:40:00,
2013-09-14 11:50:00,59.4,54.2,29.67,SW,225,2.0,2.0,83,0.00,,,0.94,183,Wunderground v.1.15,2013-09-14 17:50:00,
2013-09-14 11:55:00,59.5,54.3,29.67,SW,225,1.0,2.0,83,0.00,,,0.94,169,Wunderground v.1.15,2013-09-14 17:55:00,
2013-09-14 12:05:00,59.8,54.3,29.67,SW,226,2.0,2.0,82,0.00,,,0.94,232,Wunderground v.1.15,2013-09-14 18:05:00,
2013-09-14 12:10:00,60.2,53.7,29.67,SW,226,1.0,2.0,79,0.00,,,0.94,267,Wunderground v.1.15,2013-09-14 18:10:00,
2013-09-14 12:15:00,60.6,55.1,29.67,SW,225,1.0,2.0,82,0.00,,,0.94,257,Wunderground v.1.15,2013-09-14 18:15:00,
2013-09-14 12:20:00,61.0,54.1,29.67,SW,225,2.0,2.0,78,0.00,,,0.94,274,Wunderground v.1.15,2013-09-14 18:20:00,
2013-09-14 12:25:00,61.3,54.0,29.67,SW,225,1.0,2.0,77,0.00,,,0.94,274,Wunderground v.1.15,2013-09-14 18:25:00,
2013-09-14 12:30:00,61.7,55.5,29.67,SW,226,1.0,1.0,80,0.00,,,0.94,294,Wunderground v.1.15,2013-09-14 18:30:00,
2013-09-14 12:35:00,61.9,55.7,29.67,SW,226,0.0,1.0,80,0.00,,,0.94,352,Wunderground v.1.15,2013-09-14 18:35:00,
2013-09-14 12:40:00,62.2,56.0,29.67,SW,225,0.0,1.0,80,0.00,,,0.94,357,Wunderground v.1.15,2013-09-14 18:40:00,
2013-09-14 12:45:00,62.5,55.9,29.67,SW,226,1.0,1.0,79,0.00,,,0.94,330,Wunderground v.1.15,2013-09-14 18:45:00,
2013-09-14 12:50:00,62.8,55.5,29.67,SW,226,0.0,1.0,77,0.00,,,0.94,279,Wunderground v.1.15,2013-09-14 18:50:00,
2013-09-14 12:55:00,63.2,57.3,29.68,SW,225,0.0,1.0,81,0.00,,,0.94,260,Wunderground v.1.15,2013-09-14 18:55:00,
2013-09-14 13:05:00,63.6,56.6,29.68,SW,226,0.0,0.0,78,0.00,,,0.94,163,Wunderground v.1.15,2013-09-14 19:05:00,
2013-09-14 13:10:00,63.7,56.7,29.68,SW,225,0.0,0.0,78,0.00,,,0.94,162,Wunderground v.1.15,2013-09-14 19:10:00,
2013-09-14 13:20:00,63.8,54.2,29.68,SW,225,0.0,0.0,71,0.00,,,0.94,156,Wunderground v.1.15,2013-09-14 19:20:00,
2013-09-14 13:25:00,64.1,56.0,29.68,SW,225,0.0,0.0,75,0.00,,,0.94,195,Wunderground v.1.15,2013-09-14 19:25:00,
2013-09-14 13:35:00,64.3,56.6,29.68,SW,226,0.0,0.0,76,0.00,,,0.94,167,Wunderground v.1.15,2013-09-14 19:35:00,
2013-09-14 13:40:00,64.4,56.7,29.68,SW,225,0.0,0.0,76,0.00,,,0.94,190,Wunderground v.1.15,2013-09-14 19:40:00,
2013-09-14 13:50:00,64.6,55.4,29.68,SW,226,0.0,0.0,72,0.00,,,0.94,160,Wunderground v.1.15,2013-09-14 19:50:00,
2013-09-14 13:55:00,64.8,54.8,29.68,SW,225,0.0,0.0,70,0.00,,,0.94,144,Wunderground v.1.15,2013-09-14 19:55:00,
2013-09-14 14:00:00,64.9,54.9,29.69,SW,226,0.0,0.0,70,0.00,,,0.94,130,Wunderground v.1.15,2013-09-14 20:00:00,
2013-09-14 14:05:00,65.1,55.5,29.69,SW,226,0.0,0.0,71,0.00,,,0.94,135,Wunderground v.1.15,2013-09-14 20:05:00,
2013-09-14 14:15:00,65.2,56.3,29.69,SW,225,0.0,0.0,73,0.00,,,0.94,128,Wunderground v.1.15,2013-09-14 20:15:00,
2013-09-14 14:20:00,65.3,57.2,29.69,SW,225,0.0,0.0,75,0.00,,,0.94,114,Wunderground v.1.15,2013-09-14 20:20:00,
2013-09-14 14:30:00,65.5,58.1,29.69,SW,225,0.0,0.0,77,0.00,,,0.94,93,Wunderground v.1.15,2013-09-14 20:30:00,
2013-09-14 14:40:00,64.8,57.1,29.68,SW,226,2.0,2.0,76,0.00,,,0.95,192,Wunderground v.1.15,2013-09-14 20:40:00,
2013-09-14 14:45:00,64.5,57.1,29.68,SW,226,1.0,2.0,77,0.00,,,0.95,213,Wunderground v.1.15,2013-09-14 20:45:00,
2013-09-14 14:50:00,64.4,57.7,29.69,SW,226,0.0,0.0,79,0.00,,,0.95,195,Wunderground v.1.15,2013-09-14 20:50:00,
2013-09-14 15:00:00,64.5,57.1,29.69,SW,226,0.0,0.0,77,0.00,,,0.95,183,Wunderground v.1.15,2013-09-14 21:00:00,
2013-09-14 15:10:00,64.7,57.0,29.69,SW,226,0.0,0.0,76,0.00,,,0.95,134,Wunderground v.1.15,2013-09-14 21:10:00,
2013-09-14 15:15:00,64.9,57.2,29.69,SW,226,0.0,0.0,76,0.00,,,0.95,102,Wunderground v.1.15,2013-09-14 21:15:00,
2013-09-14 15:20:00,65.0,55.8,29.69,SW,226,0.0,0.0,72,0.00,,,0.95,62,Wunderground v.1.15,2013-09-14 21:20:00,
2013-09-14 15:30:00,65.0,57.6,29.70,SW,226,1.0,1.0,77,0.00,,,0.95,46,Wunderground v.1.15,2013-09-14 21:30:00,
2013-09-14 15:35:00,64.8,56.3,29.70,SW,226,1.0,1.0,74,0.00,,,0.95,53,Wunderground v.1.15,2013-09-14 21:35:00,
2013-09-14 15:45:00,63.7,56.0,29.71,SW,228,1.0,2.0,76,0.00,,,0.95,79,Wunderground v.1.15,2013-09-14 21:45:00,
2013-09-14 15:50:00,63.3,54.9,29.70,WSW,241,1.0,4.0,74,0.00,,,0.95,116,Wunderground v.1.15,2013-09-14 21:50:00,
2013-09-14 15:55:00,62.9,54.1,29.70,WSW,245,1.0,4.0,73,0.00,,,0.95,137,Wunderground v.1.15,2013-09-14 21:55:00,
2013-09-14 16:00:00,62.6,54.6,29.70,WSW,245,3.0,3.0,75,0.00,,,0.95,114,Wunderground v.1.15,2013-09-14 22:00:00,
2013-09-14 16:10:00,62.3,55.0,29.70,WSW,245,1.0,1.0,77,0.00,,,0.95,113,Wunderground v.1.15,2013-09-14 22:10:00,
2013-09-14 16:15:00,62.2,56.3,29.70,WSW,245,0.0,1.0,81,0.00,,,0.95,69,Wunderground v.1.15,2013-09-14 22:15:00,
2013-09-14 16:20:00,62.2,56.3,29.70,WSW,245,0.0,0.0,81,0.00,,,0.95,37,Wunderground v.1.15,2013-09-14 22:20:00,
2013-09-14 16:25:00,62.2,56.3,29.71,WSW,245,0.0,1.0,81,0.00,,,0.95,35,Wunderground v.1.15,2013-09-14 22:25:00,
2013-09-14 16:30:00,62.1,55.9,29.71,WSW,245,0.0,0.0,80,0.00,,,0.95,39,Wunderground v.1.15,2013-09-14 22:30:00,
2013-09-14 16:35:00,62.0,55.8,29.71,WSW,245,0.0,2.0,80,0.00,,,0.95,37,Wunderground v.1.15,2013-09-14 22:35:00,
2013-09-14 16:40:00,61.8,53.8,29.71,WSW,245,2.0,3.0,75,0.00,,,0.95,18,Wunderground v.1.15,2013-09-14 22:40:00,
2013-09-14 16:45:00,61.7,54.4,29.72,West,269,3.0,6.0,77,0.74,,,0.99,16,Wunderground v.1.15,2013-09-14 22:45:00,
2013-09-14 16:55:00,60.2,52.6,29.72,West,268,6.0,6.0,76,0.06,,,1.00,26,Wunderground v.1.15,2013-09-14 22:55:00,
2013-09-14 17:05:00,59.0,52.5,29.72,WNW,295,4.0,5.0,79,0.00,,,1.00,23,Wunderground v.1.15,2013-09-14 23:05:00,
2013-09-14 17:15:00,59.0,53.8,29.73,WNW,295,1.0,2.0,83,0.00,,,1.01,11,Wunderground v.1.15,2013-09-14 23:15:00,
2013-09-14 17:20:00,58.5,54.0,29.74,WNW,295,1.0,1.0,85,1.63,,,1.04,11,Wunderground v.1.15,2013-09-14 23:20:00,
2013-09-14 17:30:00,58.3,53.5,29.74,West,280,2.0,3.0,84,0.07,,,1.05,37,Wunderground v.1.15,2013-09-14 23:30:00,
2013-09-14 17:40:00,58.2,53.7,29.74,West,278,2.0,2.0,85,0.00,,,1.05,69,Wunderground v.1.15,2013-09-14 23:40:00,
2013-09-14 17:45:00,58.0,53.5,29.74,West,275,1.0,3.0,85,0.00,,,1.05,70,Wunderground v.1.15,2013-09-14 23:45:00,
2013-09-14 17:50:00,57.8,53.6,29.74,West,274,2.0,2.0,86,0.00,,,1.05,49,Wunderground v.1.15,2013-09-14 23:50:00,
2013-09-14 18:00:00,58.2,54.3,29.75,WNW,297,2.0,2.0,87,0.00,,,1.05,9,Wunderground v.1.15,2013-09-15 00:00:00,
2013-09-14 18:05:00,58.1,54.2,29.75,WNW,297,1.0,2.0,87,0.00,,,1.05,12,Wunderground v.1.15,2013-09-15 00:05:00,
2013-09-14 18:15:00,57.4,53.2,29.75,WNW,290,2.0,2.0,86,0.00,,,1.05,12,Wunderground v.1.15,2013-09-15 00:15:00,
2013-09-14 18:25:00,57.5,53.7,29.76,NW,316,3.0,4.0,87,0.00,,,1.06,7,Wunderground v.1.15,2013-09-15 00:25:00,
2013-09-14 18:30:00,57.7,53.9,29.77,NW,318,1.0,1.0,87,0.00,,,1.06,11,Wunderground v.1.15,2013-09-15 00:30:00,
2013-09-14 18:35:00,57.8,54.0,29.77,NW,315,1.0,3.0,87,0.18,,,1.08,5,Wunderground v.1.15,2013-09-15 00:35:00,
2013-09-14 18:40:00,57.8,54.0,29.77,NW,324,2.0,4.0,87,0.10,,,1.08,5,Wunderground v.1.15,2013-09-15 00:40:00,
2013-09-14 18:50:00,57.8,54.0,29.77,NW,320,1.0,1.0,87,0.06,,,1.09,11,Wunderground v.1.15,2013-09-15 00:50:00,
2013-09-14 18:55:00,57.7,54.2,29.77,NW,314,2.0,3.0,88,0.06,,,1.09,9,Wunderground v.1.15,2013-09-15 00:55:00,
2013-09-14 19:00:00,57.6,53.8,29.77,NW,322,3.0,4.0,87,0.04,,,1.09,5,Wunderground v.1.15,2013-09-15 01:00:00,
2013-09-14 19:05:00,57.4,53.6,29.78,NW,308,3.0,4.0,87,0.00,,,1.10,0,Wunderground v.1.15,2013-09-15 01:05:00,
2013-09-14 19:10:00,57.4,53.6,29.78,NW,308,3.0,3.0,87,0.00,,,1.10,0,Wunderground v.1.15,2013-09-15 01:10:00,
2013-09-14 19:15:00,57.5,53.7,29.78,NW,310,2.0,3.0,87,0.00,,,1.10,0,Wunderground v.1.15,2013-09-15 01:15:00,
2013-09-14 19:25:00,57.6,54.1,29.78,NW,322,2.0,6.0,88,0.00,,,1.11,0,Wunderground v.1.15,2013-09-15 01:25:00,
2013-09-14 19:30:00,57.8,54.3,29.79,NW,310,1.0,2.0,88,0.15,,,1.12,0,Wunderground v.1.15,2013-09-15 01:30:00,
2013-09-14 19:40:00,57.8,54.0,29.79,NNW,333,1.0,1.0,87,0.05,,,1.13,0,Wunderground v.1.15,2013-09-15 01:40:00,
2013-09-14 19:45:00,57.7,53.9,29.79,NNW,339,1.0,2.0,87,0.12,,,1.14,0,Wunderground v.1.15,2013-09-15 01:45:00,
2013-09-14 19:50:00,57.7,53.9,29.79,SW,224,2.0,2.0,87,0.11,,,1.15,0,Wunderground v.1.15,2013-09-15 01:50:00,
2013-09-14 19:55:00,57.7,53.9,29.79,South,185,2.0,2.0,87,0.06,,,1.15,0,Wunderground v.1.15,2013-09-15 01:55:00,
2013-09-14 20:00:00,57.7,53.9,29.79,NW,315,0.0,1.0,87,0.04,,,1.15,0,Wunderground v.1.15,2013-09-15 02:00:00,
2013-09-14 20:05:00,57.7,53.9,29.80,WNW,291,0.0,1.0,87,0.00,,,1.15,0,Wunderground v.1.15,2013-09-15 02:05:00,
2013-09-14 20:10:00,57.7,53.9,29.80,NW,312,1.0,1.0,87,0.00,,,1.15,0,Wunderground v.1.15,2013-09-15 02:10:00,
2013-09-14 20:15:00,57.6,53.8,29.80,NW,308,0.0,1.0,87,0.00,,,1.15,0,Wunderground v.1.15,2013-09-15 02:15:00,
2013-09-14 20:20:00,57.6,53.8,29.80,NE,35,0.0,0.0,87,0.00,,,1.15,0,Wunderground v.1.15,2013-09-15 02:20:00,
2013-09-14 20:25:00,57.5,54.0,29.81,NE,34,0.0,0.0,88,0.00,,,1.15,0,Wunderground v.1.15,2013-09-15 02:25:00,
2013-09-14 20:30:00,57.5,54.0,29.81,NNW,332,0.0,1.0,88,0.00,,,1.15,0,Wunderground v.1.15,2013-09-15 02:30:00,
2013-09-14 20:40:00,57.5,54.0,29.81,West,277,1.0,6.0,88,0.00,,,1.15,0,Wunderground v.1.15,2013-09-15 02:40:00,
2013-09-14 20:50:00,57.4,53.9,29.82,NW,320,2.0,2.0,88,0.00,,,1.15,0,Wunderground v.1.15,2013-09-15 02:50:00,
2013-09-14 20:55:00,57.5,53.7,29.82,West,260,1.0,2.0,87,0.00,,,1.15,0,Wunderground v.1.15,2013-09-15 02:55:00,
2013-09-14 21:00:00,57.5,53.7,29.82,West,275,1.0,1.0,87,0.00,,,1.15,0,Wunderground v.1.15,2013-09-15 03:00:00,
2013-09-14 21:10:00,57.5,53.7,29.82,WNW,296,1.0,2.0,87,0.00,,,1.15,0,Wunderground v.1.15,2013-09-15 03:10:00,
2013-09-14 21:15:00,57.5,53.7,29.83,WNW,297,1.0,2.0,87,0.00,,,1.15,0,Wunderground v.1.15,2013-09-15 03:15:00,
2013-09-14 21:25:00,57.5,53.7,29.83,NW,308,1.0,2.0,87,0.00,,,1.15,0,Wunderground v.1.15,2013-09-15 03:25:00,
2013-09-14 21:30:00,57.5,53.7,29.83,WNW,287,2.0,2.0,87,0.00,,,1.15,0,Wunderground v.1.15,2013-09-15 03:30:00,
2013-09-14 21:35:00,57.5,53.3,29.83,WNW,284,2.0,2.0,86,0.00,,,1.15,0,Wunderground v.1.15,2013-09-15 03:35:00,
2013-09-14 21:40:00,57.4,53.2,29.83,WNW,295,2.0,2.0,86,0.00,,,1.15,0,Wunderground v.1.15,2013-09-15 03:40:00,
2013-09-14 21:45:00,57.4,53.6,29.83,WNW,289,2.0,3.0,87,0.00,,,1.15,0,Wunderground v.1.15,2013-09-15 03:45:00,
2013-09-14 21:50:00,57.3,53.5,29.83,WNW,285,3.0,3.0,87,0.00,,,1.15,0,Wunderground v.1.15,2013-09-15 03:50:00,
2013-09-14 21:55:00,57.3,53.5,29.83,WNW,297,3.0,3.0,87,0.00,,,1.15,0,Wunderground v.1.15,2013-09-15 03:55:00,
2013-09-14 22:00:00,57.3,53.5,29.83,WNW,285,2.0,2.0,87,0.00,,,1.15,0,Wunderground v.1.15,2013-09-15 04:00:00,
2013-09-14 22:05:00,57.3,53.5,29.83,WNW,287,2.0,3.0,87,0.00,,,1.15,0,Wunderground v.1.15,2013-09-15 04:05:00,
2013-09-14 22:10:00,57.3,53.5,29.83,WNW,294,3.0,3.0,87,0.00,,,1.15,0,Wunderground v.1.15,2013-09-15 04:10:00,
2013-09-14 22:15:00,57.3,53.5,29.84,West,281,3.0,3.0,87,0.00,,,1.15,0,Wunderground v.1.15,2013-09-15 04:15:00,
2013-09-14 22:25:00,57.2,53.0,29.84,NW,313,1.0,2.0,86,0.00,,,1.15,0,Wunderground v.1.15,2013-09-15 04:25:00,
2013-09-14 22:30:00,57.3,53.5,29.84,NNW,335,1.0,1.0,87,0.17,,,1.17,0,Wunderground v.1.15,2013-09-15 04:30:00,
2013-09-14 22:35:00,57.2,53.4,29.84,WNW,285,2.0,2.0,87,0.10,,,1.17,0,Wunderground v.1.15,2013-09-15 04:35:00,
2013-09-14 22:40:00,57.2,53.4,29.84,NW,310,2.0,2.0,87,0.06,,,1.18,0,Wunderground v.1.15,2013-09-15 04:40:00,
2013-09-14 22:45:00,57.1,53.3,29.84,WNW,297,1.0,2.0,87,0.06,,,1.18,0,Wunderground v.1.15,2013-09-15 04:45:00,
2013-09-14 22:50:00,57.0,53.5,29.84,NW,309,1.0,1.0,88,0.05,,,1.18,0,Wunderground v.1.15,2013-09-15 04:50:00,
2013-09-14 22:55:00,57.0,53.5,29.84,WNW,293,2.0,4.0,88,0.04,,,1.18,0,Wunderground v.1.15,2013-09-15 04:55:00,
2013-09-14 23:00:00,57.0,53.5,29.84,West,264,2.0,2.0,88,0.00,,,1.18,0,Wunderground v.1.15,2013-09-15 05:00:00,
2013-09-14 23:10:00,57.0,53.5,29.84,NNE,31,1.0,1.0,88,0.00,,,1.18,0,Wunderground v.1.15,2013-09-15 05:10:00,
2013-09-14 23:20:00,57.0,53.2,29.85,SW,222,0.0,1.0,87,0.00,,,1.18,0,Wunderground v.1.15,2013-09-15 05:20:00,
2013-09-14 23:30:00,57.0,53.5,29.85,SW,222,0.0,0.0,88,0.00,,,1.18,0,Wunderground v.1.15,2013-09-15 05:30:00,
2013-09-14 23:35:00,57.0,53.5,29.85,SW,222,0.0,0.0,88,0.00,,,1.18,0,Wunderground v.1.15,2013-09-15 05:35:00,
2013-09-14 23:40:00,57.0,53.5,29.85,SW,222,0.0,0.0,88,0.00,,,1.18,0,Wunderground v.1.15,2013-09-15 05:40:00,
2013-09-14 23:45:00,56.9,53.7,29.85,SW,222,0.0,0.0,89,0.00,,,1.18,0,Wunderground v.1.15,2013-09-15 05:45:00,
2013-09-14 23:50:00,56.9,53.7,29.85,SW,222,0.0,2.0,89,0.00,,,1.18,0,Wunderground v.1.15,2013-09-15 05:50:00,
2013-09-14 23:55:00,56.9,53.7,29.85,SW,222,1.0,2.0,89,0.00,,,1.18,0,Wunderground v.1.15,2013-09-15 05:55:00,